»·PEaware :: DAL2437 KSAN-KLAS

DAL2437 :: KSAN-KLAS

FLIGHT INFORMATION

Flight Status: Arrived
Operator:
Delta Air Lines
More flights by this operator :: More flights under this callsign
Pilot: Miguel P. (25458)
Aircraft: AIRBUS A320
(A320)
More flights by this aircraft type
Origin: KSAN San Diego Intl-Lindbergh
United States
Destination: KLAS McCarran Intl
United States
More flights between these airports :: More routes between these airports
Route: +PADRZ2 CHKNN SEBBY YELAH MISEN KEPEC6
File this flight plan on PilotEdge
Remarks:
Altitude:
(Current/Filed)
33,000ft
Speed:
(Current/Filed)
465kts
Departed: 01-Feb-20 01:48 PM
Arrived: 01-Feb-20 02:48 PM
Distance/Time
Traveled:
225nm/1:00
Distance/Time
To Go:
Arrived

Flight Plot

Page will automatically refresh every two minutes.

Flight plan parsing failed; only flown route is shown


Map Options




Map Legend


Flown Route
Filed Route
Departure Airport
Arrival Airport
Navaid (VOR, NDB)
Fix

Horizontal Profiles

Position Reports

Time Latitude Longitude Heading Altitude Ground
Speed
01-Feb-20 13:23 32.733909 -117.200487 259 21ft 0kts
01-Feb-20 13:24 32.733909 -117.200487 259 21ft 0kts
01-Feb-20 13:25 32.733909 -117.200487 259 21ft 0kts
01-Feb-20 13:26 32.733909 -117.200487 259 21ft 0kts
01-Feb-20 13:27 32.733909 -117.200487 259 21ft 0kts
01-Feb-20 13:28 32.733909 -117.200487 259 21ft 0kts
01-Feb-20 13:29 32.733909 -117.200487 259 21ft 0kts
01-Feb-20 13:30 32.733909 -117.200486 259 21ft 0kts
01-Feb-20 13:31 32.733909 -117.200486 259 21ft 0kts
01-Feb-20 13:32 32.733909 -117.200486 259 21ft 0kts
01-Feb-20 13:33 32.733909 -117.200486 259 21ft 0kts
01-Feb-20 13:34 32.733909 -117.200486 259 21ft 0kts
01-Feb-20 13:35 32.733909 -117.200486 259 21ft 0kts
01-Feb-20 13:36 32.733909 -117.200486 259 21ft 0kts
01-Feb-20 13:37 32.733856 -117.199986 309 21ft 2kts
01-Feb-20 13:38 32.733408 -117.199823 13 21ft 0kts
01-Feb-20 13:39 32.733408 -117.199823 13 21ft 0kts
01-Feb-20 13:40 32.734676 -117.198490 102 22ft 16kts
01-Feb-20 13:41 32.733261 -117.192649 105 22ft 21kts
01-Feb-20 13:42 32.731490 -117.185330 106 21ft 24kts
01-Feb-20 13:43 32.729522 -117.177270 104 24ft 14kts
01-Feb-20 13:44 32.729488 -117.176804 76 25ft 0kts
01-Feb-20 13:45 32.729488 -117.176804 76 25ft 0kts
01-Feb-20 13:46 32.729520 -117.176657 74 25ft 5kts
01-Feb-20 13:47 32.734471 -117.193528 286 206ft 154kts
01-Feb-20 13:48 32.757990 -117.245284 305 2640ft 208kts
01-Feb-20 13:49 32.796417 -117.313415 306 5148ft 278kts
01-Feb-20 13:50 32.845068 -117.388863 310 8622ft 295kts
01-Feb-20 13:51 32.897449 -117.470052 310 11311ft 334kts
01-Feb-20 13:52 32.959658 -117.566766 309 13087ft 383kts
01-Feb-20 13:53 33.025720 -117.670075 308 15553ft 396kts
01-Feb-20 13:54 33.101319 -117.767642 321 17769ft 404kts
01-Feb-20 13:55 33.188425 -117.856254 320 19716ft 414kts
01-Feb-20 13:56 33.278491 -117.944490 321 21448ft 423kts
01-Feb-20 13:57 33.373855 -118.030838 338 22981ft 433kts
01-Feb-20 13:58 33.491742 -118.016841 18 24357ft 440kts
01-Feb-20 13:59 33.609247 -117.970106 18 25733ft 447kts
01-Feb-20 14:00 33.729132 -117.922111 18 26919ft 456kts
01-Feb-20 14:01 33.847595 -117.874578 18 28008ft 462kts
01-Feb-20 14:02 33.970484 -117.825093 18 29106ft 466kts
01-Feb-20 14:03 34.089534 -117.765617 36 30518ft 461kts
01-Feb-20 14:04 34.175309 -117.651749 49 31917ft 456kts
01-Feb-20 14:05 34.255664 -117.534168 49 33231ft 450kts
01-Feb-20 14:06 34.335661 -117.416590 49 33414ft 449kts
01-Feb-20 14:07 34.415223 -117.299234 50 33414ft 449kts
01-Feb-20 14:08 34.494652 -117.181689 50 33408ft 448kts
01-Feb-20 14:09 34.573748 -117.064254 50 32763ft 447kts
01-Feb-20 14:10 34.652887 -116.946338 50 31845ft 451kts
01-Feb-20 14:11 34.732218 -116.827763 50 30934ft 450kts
01-Feb-20 14:12 34.810718 -116.710051 50 29980ft 445kts
01-Feb-20 14:13 34.896930 -116.603345 38 28963ft 432kts
01-Feb-20 14:14 34.988051 -116.515103 38 27023ft 409kts
01-Feb-20 14:15 35.076077 -116.429483 38 25023ft 397kts
01-Feb-20 14:16 35.155465 -116.337378 45 23250ft 389kts
01-Feb-20 14:17 35.230453 -116.243428 46 21793ft 381kts
01-Feb-20 14:18 35.304399 -116.150482 46 20274ft 373kts
01-Feb-20 14:19 35.376577 -116.059505 46 18776ft 365kts
01-Feb-20 14:20 35.446503 -115.971127 46 17340ft 354kts
01-Feb-20 14:21 35.514525 -115.884915 46 15959ft 345kts
01-Feb-20 14:22 35.581164 -115.800244 45 14613ft 339kts
01-Feb-20 14:23 35.647757 -115.714884 45 14216ft 340kts
01-Feb-20 14:24 35.711598 -115.633721 45 13216ft 298kts
01-Feb-20 14:25 35.775306 -115.574434 5 13077ft 295kts
01-Feb-20 14:26 35.857511 -115.569881 3 13070ft 293kts
01-Feb-20 14:27 35.939181 -115.565318 5 13056ft 292kts
01-Feb-20 14:28 35.991573 -115.498627 67 12565ft 286kts
01-Feb-20 14:29 36.020138 -115.409325 66 11548ft 266kts
01-Feb-20 14:30 36.027362 -115.324998 93 10783ft 248kts
01-Feb-20 14:31 36.021242 -115.239897 93 9808ft 247kts
01-Feb-20 14:32 36.015305 -115.155234 93 8818ft 246kts
01-Feb-20 14:33 36.009751 -115.073109 93 8400ft 235kts
01-Feb-20 14:34 36.004916 -114.990983 93 8376ft 238kts
01-Feb-20 14:35 36.000049 -114.909378 93 8375ft 236kts
01-Feb-20 14:36 35.995113 -114.827952 93 8017ft 234kts
01-Feb-20 14:37 35.990108 -114.751536 93 7689ft 208kts
01-Feb-20 14:38 35.992412 -114.685275 45 6838ft 194kts
01-Feb-20 14:39 36.041966 -114.692012 302 6610ft 200kts
01-Feb-20 14:40 36.062743 -114.755960 291 6605ft 199kts
01-Feb-20 14:41 36.074484 -114.822317 270 5887ft 198kts
01-Feb-20 14:42 36.074171 -114.890112 270 5068ft 193kts
01-Feb-20 14:43 36.074018 -114.957031 270 4729ft 194kts
01-Feb-20 14:44 36.073726 -115.021223 270 3703ft 168kts
01-Feb-20 14:45 36.073698 -115.074573 270 2811ft 149kts
01-Feb-20 14:46 36.073629 -115.126134 270 2081ft 144kts
01-Feb-20 14:47 36.074189 -115.149375 292 2120ft 1kts
01-Feb-20 14:49 36.077125 -115.152409 340 2126ft 0kts
01-Feb-20 14:50 36.078553 -115.147827 94 2106ft 29kts
01-Feb-20 14:51 36.078267 -115.139163 89 2079ft 31kts
01-Feb-20 14:52 36.079913 -115.135717 23 2066ft 0kts

Navigation Log

Ident Type
Flight plan parsing failed, navigation log unavailable